createdAt,value
2019-03-23T00:00:37.390Z,48.80
2019-03-23T00:03:34.364Z,48.90
2019-03-23T00:06:31.138Z,49.00
2019-03-23T00:09:28.019Z,49.10
2019-03-23T00:12:24.257Z,49.00
2019-03-23T00:15:20.662Z,49.00
2019-03-23T00:18:16.587Z,49.00
2019-03-23T00:21:13.129Z,49.00
2019-03-23T00:24:09.426Z,48.90
2019-03-23T00:27:05.876Z,48.40
2019-03-23T00:30:02.296Z,49.10
2019-03-23T00:32:58.913Z,49.40
2019-03-23T00:35:55.265Z,49.50
2019-03-23T00:38:52.198Z,49.50
2019-03-23T00:41:48.615Z,49.60
2019-03-23T00:44:45.458Z,49.50
2019-03-23T00:47:41.981Z,49.30
2019-03-23T00:50:38.427Z,49.40
2019-03-23T00:53:34.861Z,49.80
2019-03-23T00:56:31.438Z,50.00
2019-03-23T00:59:27.854Z,50.20
2019-03-23T01:02:24.949Z,50.50
2019-03-23T01:05:21.684Z,50.80
2019-03-23T01:08:18.167Z,50.70
2019-03-23T01:11:15.070Z,50.60
2019-03-23T01:14:11.746Z,50.70
2019-03-23T01:17:08.167Z,50.90
2019-03-23T01:20:04.766Z,51.00
2019-03-23T01:23:01.610Z,51.20
2019-03-23T01:25:58.227Z,51.20
2019-03-23T01:28:55.085Z,51.30
2019-03-23T01:31:51.624Z,51.30
2019-03-23T01:34:50.232Z,51.20
2019-03-23T01:37:46.997Z,51.40
2019-03-23T01:40:43.243Z,51.50
2019-03-23T01:43:39.692Z,51.40
2019-03-23T01:46:35.751Z,51.40
2019-03-23T01:49:32.441Z,51.50
2019-03-23T01:52:28.873Z,51.70
2019-03-23T01:55:25.701Z,51.70
2019-03-23T01:58:22.251Z,51.90
2019-03-23T02:01:19.557Z,51.90
2019-03-23T02:04:16.251Z,51.80
2019-03-23T02:07:14.290Z,51.70
2019-03-23T02:10:10.633Z,51.60
2019-03-23T02:13:07.433Z,51.40
2019-03-23T02:16:04.786Z,51.20
2019-03-23T02:19:01.405Z,51.20
2019-03-23T02:21:58.175Z,50.80
2019-03-23T02:24:54.162Z,50.60
2019-03-23T02:27:50.312Z,50.20
2019-03-23T02:30:46.835Z,49.70
2019-03-23T02:33:43.248Z,49.30
2019-03-23T02:36:39.825Z,49.00
2019-03-23T02:39:36.304Z,48.80
2019-03-23T02:42:32.911Z,49.00
2019-03-23T02:45:30.389Z,48.10
2019-03-23T02:48:26.296Z,48.00
2019-03-23T02:51:22.727Z,48.10
2019-03-23T02:54:19.366Z,48.10
2019-03-23T02:57:16.237Z,47.80
2019-03-23T03:00:13.729Z,47.80
2019-03-23T03:03:10.477Z,47.60
2019-03-23T03:06:06.947Z,47.60
2019-03-23T03:09:03.584Z,47.40
2019-03-23T03:12:00.659Z,47.20
2019-03-23T03:14:59.464Z,47.20
2019-03-23T03:17:56.987Z,47.10
2019-03-23T03:20:54.779Z,47.10
2019-03-23T03:23:51.088Z,47.00
2019-03-23T03:26:48.080Z,46.80
2019-03-23T03:29:46.504Z,46.60
2019-03-23T03:32:42.794Z,46.40
2019-03-23T03:35:39.417Z,46.40
2019-03-23T03:38:35.815Z,46.40
2019-03-23T03:41:32.245Z,46.60
2019-03-23T03:44:28.832Z,46.60
2019-03-23T03:47:25.225Z,46.20
2019-03-23T03:50:23.774Z,45.90
2019-03-23T03:53:20.232Z,45.90
2019-03-23T03:56:16.789Z,45.80
2019-03-23T03:59:13.515Z,45.50
2019-03-23T04:02:10.138Z,45.50
2019-03-23T04:05:06.517Z,45.30
2019-03-23T04:08:10.892Z,44.80
2019-03-23T04:11:01.740Z,44.70
2019-03-23T04:13:58.409Z,44.40
2019-03-23T04:16:54.708Z,44.10
2019-03-23T04:19:51.357Z,44.00
2019-03-23T04:22:47.500Z,44.10
2019-03-23T04:25:43.719Z,44.20
2019-03-23T04:28:41.614Z,43.70
2019-03-23T04:31:38.014Z,43.20
2019-03-23T04:34:35.422Z,43.00
2019-03-23T04:37:32.617Z,43.00
2019-03-23T04:40:29.060Z,42.80
2019-03-23T04:43:25.436Z,42.90
2019-03-23T04:46:22.550Z,42.80
2019-03-23T04:49:18.852Z,42.10
2019-03-23T04:52:33.437Z,41.90
2019-03-23T04:55:31.259Z,41.80
2019-03-23T04:58:27.719Z,41.90
2019-03-23T05:01:24.004Z,41.50
2019-03-23T05:04:20.083Z,41.60
2019-03-23T05:07:16.129Z,41.30
2019-03-23T05:10:12.883Z,40.90
2019-03-23T05:13:09.671Z,40.80
2019-03-23T05:16:08.783Z,40.70
2019-03-23T05:19:13.701Z,40.60
2019-03-23T05:22:11.442Z,40.50
2019-03-23T05:25:11.368Z,40.60
2019-03-23T05:28:09.011Z,40.70
2019-03-23T05:31:07.056Z,40.90
2019-03-23T05:34:02.334Z,41.10
2019-03-23T05:36:58.313Z,41.20
2019-03-23T05:39:55.049Z,41.10
2019-03-23T05:42:51.982Z,41.20
2019-03-23T05:45:48.516Z,41.40
2019-03-23T05:48:44.604Z,41.30
2019-03-23T05:51:41.112Z,41.10
2019-03-23T05:54:37.857Z,41.10
2019-03-23T05:57:34.629Z,41.20
2019-03-23T06:00:30.973Z,41.20
2019-03-23T06:03:32.498Z,41.40
2019-03-23T06:06:29.039Z,41.50
2019-03-23T06:09:31.831Z,41.80
2019-03-23T06:12:29.771Z,41.80
2019-03-23T06:15:26.275Z,41.60
2019-03-23T06:18:23.441Z,41.40
2019-03-23T06:21:20.256Z,40.70
2019-03-23T06:24:16.904Z,40.10
2019-03-23T06:27:14.064Z,39.90
2019-03-23T06:30:15.253Z,40.10
2019-03-23T06:33:12.807Z,40.30
2019-03-23T06:36:09.277Z,39.40
2019-03-23T06:39:06.267Z,39.30
2019-03-23T06:42:02.449Z,39.20
2019-03-23T06:44:58.491Z,39.20
2019-03-23T06:47:54.600Z,38.60
2019-03-23T06:50:51.838Z,37.60
2019-03-23T06:53:48.583Z,37.10
2019-03-23T06:56:48.969Z,36.80
2019-03-23T06:59:51.812Z,36.60
2019-03-23T07:02:48.898Z,37.00
2019-03-23T07:05:46.052Z,36.60
2019-03-23T07:08:48.080Z,36.40
2019-03-23T07:11:44.755Z,36.80
2019-03-23T07:14:41.197Z,36.90
2019-03-23T07:17:37.871Z,36.40
2019-03-23T07:20:34.668Z,36.40
2019-03-23T07:23:33.957Z,36.20
2019-03-23T07:26:31.499Z,35.90
2019-03-23T07:29:38.340Z,34.60
2019-03-23T07:32:43.383Z,34.20
2019-03-23T07:35:53.371Z,34.00
2019-03-23T07:38:49.745Z,34.20
2019-03-23T07:41:46.002Z,34.30
2019-03-23T07:44:45.082Z,33.80
2019-03-23T07:47:46.880Z,33.60
2019-03-23T07:50:43.067Z,33.60
2019-03-23T07:53:44.074Z,34.10
2019-03-23T07:56:38.551Z,33.70
2019-03-23T07:59:34.857Z,32.80
2019-03-23T08:02:33.048Z,32.90
2019-03-23T08:05:29.101Z,32.90
2019-03-23T08:08:25.903Z,32.40
2019-03-23T08:11:22.491Z,31.60
2019-03-23T08:14:18.851Z,31.70
2019-03-23T08:17:15.055Z,31.80
2019-03-23T08:20:11.935Z,31.60
2019-03-23T08:23:11.477Z,31.50
2019-03-23T08:26:05.093Z,31.00
2019-03-23T08:29:03.288Z,31.20
2019-03-23T08:31:58.665Z,31.30
2019-03-23T08:34:55.053Z,31.40
2019-03-23T08:37:51.456Z,31.70
2019-03-23T08:40:48.578Z,32.00
2019-03-23T08:43:45.508Z,32.20
2019-03-23T08:46:47.851Z,31.80
2019-03-23T08:49:44.494Z,31.70
2019-03-23T08:52:42.365Z,31.10
2019-03-23T08:55:38.869Z,30.70
2019-03-23T08:58:33.392Z,31.00
2019-03-23T09:01:30.279Z,31.20
2019-03-23T09:04:27.532Z,30.90
2019-03-23T09:07:25.252Z,30.90
2019-03-23T09:10:21.311Z,30.00
2019-03-23T09:13:17.751Z,30.00
2019-03-23T09:16:23.721Z,29.20
2019-03-23T09:19:23.230Z,29.00
2019-03-23T09:22:32.370Z,28.60
2019-03-23T09:25:31.959Z,27.20
2019-03-23T09:28:59.654Z,27.30
2019-03-23T09:31:56.569Z,27.50
2019-03-23T09:34:53.180Z,27.40
2019-03-23T09:37:54.775Z,26.70
2019-03-23T09:41:07.519Z,26.50
2019-03-23T09:44:32.791Z,26.90
2019-03-23T09:47:27.463Z,27.00
2019-03-23T09:50:24.914Z,26.80
2019-03-23T09:53:38.078Z,26.50
2019-03-23T09:56:32.619Z,26.30
2019-03-23T09:59:30.226Z,26.60
2019-03-23T10:02:51.159Z,26.70
2019-03-23T10:06:10.489Z,26.80
2019-03-23T10:09:32.679Z,26.90
2019-03-23T10:12:26.614Z,27.10
2019-03-23T10:15:49.293Z,27.40
2019-03-23T10:18:46.572Z,27.40
2019-03-23T10:21:43.441Z,27.30
2019-03-23T10:24:55.317Z,26.90
2019-03-23T10:28:06.679Z,27.00
2019-03-23T10:31:04.331Z,26.70
2019-03-23T10:34:03.528Z,26.40
2019-03-23T10:36:59.896Z,25.90
2019-03-23T10:39:56.437Z,25.80
2019-03-23T10:42:52.858Z,26.60
2019-03-23T10:46:19.369Z,26.80
2019-03-23T10:49:22.815Z,26.60
2019-03-23T10:52:28.631Z,26.70
2019-03-23T10:55:30.483Z,27.20
2019-03-23T10:58:27.020Z,27.40
2019-03-23T11:01:24.669Z,26.90
2019-03-23T11:04:22.640Z,26.60
2019-03-23T11:07:21.246Z,26.60
2019-03-23T11:10:19.425Z,26.90
2019-03-23T11:13:40.318Z,27.20
2019-03-23T11:17:04.646Z,27.90
2019-03-23T11:19:48.709Z,28.10
2019-03-23T11:22:47.822Z,28.60
2019-03-23T11:25:45.966Z,29.00
2019-03-23T11:28:45.984Z,29.10
2019-03-23T11:31:44.312Z,29.30
2019-03-23T11:34:42.481Z,29.30
2019-03-23T11:37:40.929Z,29.50
2019-03-23T11:40:36.917Z,29.60
2019-03-23T11:43:33.507Z,29.40
2019-03-23T11:46:32.598Z,29.60
2019-03-23T11:49:33.162Z,29.60
2019-03-23T11:52:27.306Z,30.00
2019-03-23T11:55:23.669Z,30.40
2019-03-23T11:58:21.109Z,30.10
2019-03-23T12:01:17.674Z,30.10
2019-03-23T12:04:14.696Z,30.20
2019-03-23T12:07:11.746Z,30.30
2019-03-23T12:10:08.628Z,30.60
2019-03-23T12:13:08.646Z,30.40
2019-03-23T12:16:09.389Z,30.00
2019-03-23T12:19:05.986Z,30.10
2019-03-23T12:22:02.700Z,30.50
2019-03-23T12:24:59.903Z,30.90
2019-03-23T12:27:56.951Z,31.10
2019-03-23T12:30:55.999Z,31.00
2019-03-23T12:33:53.062Z,31.10
2019-03-23T12:36:50.029Z,31.30
2019-03-23T12:39:47.324Z,31.80
2019-03-23T12:42:47.904Z,32.30
2019-03-23T12:45:45.040Z,32.30
2019-03-23T12:48:42.820Z,32.50
2019-03-23T12:51:40.984Z,32.80
2019-03-23T12:54:37.518Z,33.10
2019-03-23T12:57:40.903Z,33.40
2019-03-23T13:00:37.874Z,33.50
2019-03-23T13:03:35.152Z,33.70
2019-03-23T13:06:33.773Z,33.90
2019-03-23T13:09:31.450Z,34.30
2019-03-23T13:12:28.104Z,34.10
2019-03-23T13:15:24.789Z,34.30
2019-03-23T13:18:27.128Z,34.70
2019-03-23T13:21:19.260Z,35.10
2019-03-23T13:24:15.726Z,35.20
2019-03-23T13:27:26.243Z,35.40
2019-03-23T13:30:23.038Z,35.50
2019-03-23T13:33:21.311Z,35.20
2019-03-23T13:36:18.079Z,35.10
2019-03-23T13:39:15.021Z,35.00
2019-03-23T13:42:11.219Z,35.30
2019-03-23T13:45:07.726Z,35.70
2019-03-23T13:48:03.976Z,36.10
2019-03-23T13:51:00.374Z,35.90
2019-03-23T13:53:56.514Z,35.70
2019-03-23T13:56:52.392Z,35.50
2019-03-23T13:59:48.637Z,35.70
2019-03-23T14:02:44.751Z,35.90
2019-03-23T14:05:41.920Z,36.30
2019-03-23T14:08:38.690Z,36.30
2019-03-23T14:11:36.526Z,36.10
2019-03-23T14:14:33.363Z,36.00
2019-03-23T14:17:29.484Z,35.70
2019-03-23T14:20:25.608Z,35.80
2019-03-23T14:23:21.814Z,35.70
2019-03-23T14:26:18.585Z,36.10
2019-03-23T14:29:14.441Z,36.40
2019-03-23T14:32:12.587Z,36.50
2019-03-23T14:35:09.778Z,36.30
2019-03-23T14:38:05.943Z,36.40
2019-03-23T14:41:02.697Z,36.20
2019-03-23T14:43:59.717Z,36.00
2019-03-23T14:46:56.001Z,35.80
2019-03-23T14:49:54.007Z,35.80
2019-03-23T14:52:50.669Z,36.00
2019-03-23T14:55:47.277Z,36.00
2019-03-23T14:58:45.452Z,36.00
2019-03-23T15:01:42.181Z,36.10
2019-03-23T15:04:38.300Z,36.10
2019-03-23T15:07:35.189Z,36.00
2019-03-23T15:10:32.316Z,36.00
2019-03-23T15:13:29.508Z,35.90
2019-03-23T15:16:27.204Z,35.90
2019-03-23T15:19:30.540Z,35.90
2019-03-23T15:22:31.258Z,35.80
2019-03-23T15:25:33.558Z,35.70
2019-03-23T15:28:31.307Z,35.80
2019-03-23T15:31:28.113Z,35.90
2019-03-23T15:34:24.676Z,36.10
2019-03-23T15:37:21.610Z,36.60
2019-03-23T15:40:20.481Z,36.60
2019-03-23T15:43:16.730Z,36.80
2019-03-23T15:46:13.305Z,36.80
2019-03-23T15:49:10.265Z,37.00
2019-03-23T15:52:06.775Z,37.40
2019-03-23T15:55:03.399Z,37.40
2019-03-23T15:58:00.132Z,37.60
2019-03-23T16:00:57.279Z,38.00
2019-03-23T16:04:00.607Z,38.30
2019-03-23T16:06:58.098Z,38.50
2019-03-23T16:09:54.958Z,38.30
2019-03-23T16:12:52.983Z,38.50
2019-03-23T16:15:50.314Z,38.70
2019-03-23T16:18:47.854Z,38.50
2019-03-23T16:21:46.422Z,38.20
2019-03-23T16:24:44.775Z,38.10
2019-03-23T16:27:43.492Z,38.10
2019-03-23T16:30:40.205Z,38.20
2019-03-23T16:33:38.372Z,38.40
2019-03-23T16:36:34.532Z,38.50
2019-03-23T16:39:30.853Z,38.40
2019-03-23T16:42:29.312Z,38.70
2019-03-23T16:45:26.593Z,38.80
2019-03-23T16:48:24.276Z,38.80
2019-03-23T16:51:21.561Z,38.80
2019-03-23T16:54:18.088Z,38.90
2019-03-23T16:57:16.725Z,39.00
2019-03-23T17:00:15.383Z,39.10
2019-03-23T17:03:14.632Z,39.30
2019-03-23T17:06:12.865Z,39.50
2019-03-23T17:09:10.304Z,39.70
2019-03-23T17:12:07.361Z,39.80
2019-03-23T17:15:03.984Z,40.10
2019-03-23T17:18:01.136Z,40.10
2019-03-23T17:20:59.421Z,40.50
2019-03-23T17:23:58.939Z,40.40
2019-03-23T17:26:55.885Z,40.30
2019-03-23T17:29:52.656Z,39.80
2019-03-23T17:32:50.322Z,40.00
2019-03-23T17:35:49.339Z,40.10
2019-03-23T17:38:45.984Z,39.90
2019-03-23T17:41:42.609Z,40.00
2019-03-23T17:44:39.963Z,39.90
2019-03-23T17:47:37.573Z,40.30
2019-03-23T17:50:35.194Z,40.30
2019-03-23T17:53:32.031Z,40.50
2019-03-23T17:56:29.815Z,40.70
2019-03-23T17:59:27.435Z,40.90
2019-03-23T18:02:30.711Z,41.10
2019-03-23T18:05:28.051Z,41.20
2019-03-23T18:08:25.240Z,41.10
2019-03-23T18:11:22.415Z,41.10
2019-03-23T18:14:19.683Z,41.00
2019-03-23T18:17:16.423Z,40.90
2019-03-23T18:20:16.445Z,40.70
2019-03-23T18:23:13.238Z,40.50
2019-03-23T18:26:09.843Z,40.40
2019-03-23T18:29:06.229Z,40.50
2019-03-23T18:32:02.791Z,40.70
2019-03-23T18:34:59.779Z,40.70
2019-03-23T18:37:57.498Z,40.70
2019-03-23T18:40:54.292Z,40.70
2019-03-23T18:43:50.407Z,41.10
2019-03-23T18:46:46.442Z,41.20
2019-03-23T18:49:42.373Z,41.30
2019-03-23T18:52:38.753Z,41.30
2019-03-23T18:55:34.511Z,41.30
2019-03-23T18:58:30.948Z,41.00
2019-03-23T19:01:27.476Z,41.00
2019-03-23T19:04:23.958Z,41.20
2019-03-23T19:07:20.214Z,41.20
2019-03-23T19:10:16.655Z,41.40
2019-03-23T19:13:13.739Z,41.50
2019-03-23T19:16:10.229Z,41.60
2019-03-23T19:19:06.663Z,41.70
2019-03-23T19:22:02.929Z,41.80
2019-03-23T19:24:59.086Z,42.00
2019-03-23T19:27:55.658Z,42.20
2019-03-23T19:30:51.730Z,42.40
2019-03-23T19:33:48.233Z,42.50
2019-03-23T19:36:45.521Z,42.80
2019-03-23T19:39:41.884Z,42.70
2019-03-23T19:42:38.128Z,42.80
2019-03-23T19:45:35.271Z,42.70
2019-03-23T19:48:31.625Z,42.80
2019-03-23T19:51:28.405Z,42.80
2019-03-23T19:54:24.508Z,42.80
2019-03-23T19:57:21.125Z,42.80
2019-03-23T20:00:17.303Z,42.80
2019-03-23T20:03:14.134Z,42.90
2019-03-23T20:06:10.061Z,43.00
2019-03-23T20:09:08.037Z,42.90
2019-03-23T20:12:05.054Z,42.80
2019-03-23T20:15:01.628Z,43.00
2019-03-23T20:17:58.041Z,43.00
2019-03-23T20:20:54.785Z,43.10
2019-03-23T20:23:51.363Z,43.20
2019-03-23T20:26:47.915Z,43.70
2019-03-23T20:29:44.374Z,43.30
2019-03-23T20:32:41.254Z,43.30
2019-03-23T20:35:37.346Z,43.30
2019-03-23T20:38:34.260Z,43.40
2019-03-23T20:41:30.855Z,43.60
2019-03-23T20:44:27.864Z,43.10
2019-03-23T20:47:25.315Z,43.50
2019-03-23T20:50:22.280Z,43.40
2019-03-23T20:53:19.232Z,43.10
2019-03-23T20:56:15.823Z,43.00
2019-03-23T20:59:12.327Z,42.60
2019-03-23T21:02:08.022Z,42.20
2019-03-23T21:05:04.207Z,42.00
2019-03-23T21:08:00.135Z,41.60
2019-03-23T21:10:57.385Z,41.30
2019-03-23T21:13:53.283Z,41.00
2019-03-23T21:16:49.246Z,40.60
2019-03-23T21:19:45.232Z,40.30
2019-03-23T21:22:41.015Z,40.10
2019-03-23T21:25:37.238Z,40.00
2019-03-23T21:28:33.406Z,39.80
2019-03-23T21:31:29.782Z,39.60
2019-03-23T21:34:25.674Z,39.60
2019-03-23T21:37:21.797Z,39.30
2019-03-23T21:40:18.200Z,39.20
2019-03-23T21:43:14.678Z,39.30
2019-03-23T21:46:11.061Z,39.40
2019-03-23T21:49:07.538Z,39.20
2019-03-23T21:52:04.957Z,38.90
2019-03-23T21:55:01.277Z,38.90
2019-03-23T21:57:57.609Z,38.70
2019-03-23T22:00:54.342Z,38.50
2019-03-23T22:03:50.963Z,38.40
2019-03-23T22:06:47.190Z,38.10
2019-03-23T22:09:44.194Z,38.10
2019-03-23T22:12:41.409Z,38.00
2019-03-23T22:15:38.070Z,37.90
2019-03-23T22:18:34.378Z,37.80
2019-03-23T22:21:30.879Z,38.10
2019-03-23T22:24:27.339Z,37.20
2019-03-23T22:27:25.684Z,37.00
2019-03-23T22:30:22.368Z,36.90
2019-03-23T22:33:18.936Z,36.90
2019-03-23T22:36:14.651Z,36.80
2019-03-23T22:39:12.026Z,36.70
2019-03-23T22:42:08.471Z,36.80
2019-03-23T22:45:04.503Z,36.60
2019-03-23T22:48:00.556Z,36.60
2019-03-23T22:50:57.404Z,36.60
2019-03-23T22:53:55.357Z,36.40
2019-03-23T22:56:51.119Z,36.50
2019-03-23T22:59:47.754Z,36.60
2019-03-23T23:02:44.473Z,36.80
2019-03-23T23:05:40.907Z,36.90
2019-03-23T23:08:37.800Z,37.10
2019-03-23T23:11:35.252Z,37.10
2019-03-23T23:14:31.048Z,37.10
2019-03-23T23:17:27.514Z,37.20
2019-03-23T23:20:24.348Z,37.00
2019-03-23T23:23:20.635Z,36.70
2019-03-23T23:26:17.631Z,36.60
2019-03-23T23:29:14.222Z,36.60
2019-03-23T23:32:10.153Z,36.40
2019-03-23T23:35:06.749Z,36.30
2019-03-23T23:38:02.681Z,36.20
2019-03-23T23:40:58.561Z,36.10
2019-03-23T23:43:55.210Z,36.10
2019-03-23T23:46:52.341Z,36.20
2019-03-23T23:49:48.266Z,36.30
2019-03-23T23:52:44.340Z,36.30
2019-03-23T23:55:40.787Z,36.30
2019-03-23T23:58:38.056Z,36.30
